Time;durP1;ratioP1;P1;durP2;ratioP2;P2;SDS_P1;SDS_P2;PMS_P1;PMS_P2;Temp;Humidity;BMP_temperature;BMP_pressure;BME280_temperature;BME280_humidity;BME280_pressure;Samples;Min_cycle;Max_cycle;Signal;HPM_P1;HPM_P2
2024/04/05 00:00:43;;;;;;;4.78;2.33;;;;;;;;;;2073003;28;20452;-74
2024/04/05 00:01:45;;;;;;;5.40;2.58;;;;;;;;;;2070043;28;20053;-71
2024/04/05 00:02:47;;;;;;;4.22;2.35;;;;;;;;;;2073470;28;20030;-72
2024/04/05 00:03:48;;;;;;;4.82;2.55;;;;;;;;;;2073399;28;20014;-76
2024/04/05 00:04:50;;;;;;;4.95;2.30;;;;;;;;;;2073533;28;20029;-75
2024/04/05 00:05:51;;;;;;;4.78;3.00;;;;;;;;;;2073638;28;20052;-74
2024/04/05 00:06:52;;;;;;;4.40;2.50;;;;;;;;;;2073573;28;20024;-72
2024/04/05 00:07:54;;;;;;;6.95;2.17;;;;;;;;;;2070878;28;20538;-75
2024/04/05 00:08:55;;;;;;;5.35;2.72;;;;;;;;;;2073602;28;20016;-75
2024/04/05 00:09:56;;;;;;;5.50;3.08;;;;;;;;;;2073273;28;20029;-74
2024/04/05 00:10:58;;;;;;;5.22;2.60;;;;;;;;;;2073647;28;20021;-72
2024/04/05 00:11:59;;;;;;;4.30;2.60;;;;;;;;;;2073556;28;20072;-76
2024/04/05 00:13:00;;;;;;;4.07;2.47;;;;;;;;;;2073314;28;20116;-73
2024/04/05 00:14:02;;;;;;;4.72;2.60;;;;;;;;;;2073706;28;20022;-75
2024/04/05 00:15:04;;;;;;;6.43;2.50;;;;;;;;;;2070438;28;20034;-76
2024/04/05 00:16:06;;;;;;;3.95;2.10;;;;;;;;;;2072990;28;20038;-73
2024/04/05 00:17:08;;;;;;;3.47;1.85;;;;;;;;;;2073622;28;20045;-73
2024/04/05 00:18:10;;;;;;;4.43;2.00;;;;;;;;;;2073459;28;20018;-72
2024/04/05 00:19:11;;;;;;;4.40;2.20;;;;;;;;;;2073591;28;20033;-77
2024/04/05 00:20:13;;;;;;;4.18;1.90;;;;;;;;;;2073590;28;20072;-74
2024/04/05 00:21:14;;;;;;;5.25;2.30;;;;;;;;;;2073657;28;20026;-71
2024/04/05 00:22:15;;;;;;;2.75;2.03;;;;;;;;;;2073508;28;20106;-76
2024/04/05 00:23:17;;;;;;;3.80;2.28;;;;;;;;;;2073637;28;20032;-75
2024/04/05 00:24:18;;;;;;;3.10;2.22;;;;;;;;;;2070851;28;20112;-76
2024/04/05 00:25:19;;;;;;;5.82;2.33;;;;;;;;;;2067986;28;20077;-71
2024/04/05 00:26:21;;;;;;;6.40;2.40;;;;;;;;;;2070247;28;20555;-72
2024/04/05 00:27:23;;;;;;;3.85;2.00;;;;;;;;;;2073188;28;20032;-74
2024/04/05 00:28:24;;;;;;;4.47;2.30;;;;;;;;;;2073610;28;20033;-73
2024/04/05 00:29:26;;;;;;;4.85;2.38;;;;;;;;;;2073242;28;20018;-71
2024/04/05 00:30:27;;;;;;;4.88;2.33;;;;;;;;;;2072559;28;20029;-69
2024/04/05 00:31:28;;;;;;;5.07;2.85;;;;;;;;;;2073517;28;20018;-70
2024/04/05 00:32:30;;;;;;;4.82;2.38;;;;;;;;;;2073444;28;20029;-73
2024/04/05 00:33:34;;;;;;;3.80;2.25;;;;;;;;;;2073490;28;20025;-73
2024/04/05 00:34:35;;;;;;;4.80;2.55;;;;;;;;;;2071311;28;20076;-72
2024/04/05 00:35:37;;;;;;;4.03;2.00;;;;;;;;;;2073274;28;20029;-72
2024/04/05 00:36:38;;;;;;;3.53;2.15;;;;;;;;;;2073419;28;20028;-73
2024/04/05 00:37:39;;;;;;;4.25;2.13;;;;;;;;;;2073371;28;20482;-70
2024/04/05 00:38:41;;;;;;;5.20;2.78;;;;;;;;;;2073505;28;20117;-72
2024/04/05 00:39:42;;;;;;;3.63;2.20;;;;;;;;;;2069571;28;20046;-73
2024/04/05 00:40:44;;;;;;;4.45;2.22;;;;;;;;;;2072283;28;20040;-73
2024/04/05 00:41:45;;;;;;;5.80;2.25;;;;;;;;;;2072597;28;20036;-75
2024/04/05 00:42:46;;;;;;;4.40;2.45;;;;;;;;;;2072732;28;20037;-70
2024/04/05 00:43:48;;;;;;;4.85;2.35;;;;;;;;;;2073413;28;20018;-70
2024/04/05 00:44:49;;;;;;;3.40;1.95;;;;;;;;;;2073084;28;20457;-68
2024/04/05 00:45:51;;;;;;;4.57;2.17;;;;;;;;;;2073310;28;20053;-71
2024/04/05 00:46:53;;;;;;;4.38;2.03;;;;;;;;;;2073209;28;20033;-73
2024/04/05 00:47:55;;;;;;;4.72;2.53;;;;;;;;;;2069775;28;20042;-73
2024/04/05 00:48:57;;;;;;;4.75;2.30;;;;;;;;;;2071480;28;20541;-72
2024/04/05 00:50:00;;;;;;;5.13;2.45;;;;;;;;;;2073009;28;20061;-70
2024/04/05 00:51:05;;;;;;;3.15;2.13;;;;;;;;;;2073457;28;20053;-72
2024/04/05 00:52:07;;;;;;;8.88;2.42;;;;;;;;;;2071237;28;20029;-70
2024/04/05 00:53:11;;;;;;;4.43;2.20;;;;;;;;;;2073399;28;20033;-69
2024/04/05 00:54:12;;;;;;;2.53;1.77;;;;;;;;;;2073389;28;20054;-70
2024/04/05 00:55:14;;;;;;;4.05;2.35;;;;;;;;;;2068539;28;20387;-68
2024/04/05 00:56:15;;;;;;;3.53;2.25;;;;;;;;;;2069410;28;20034;-70
2024/04/05 00:57:17;;;;;;;4.13;2.47;;;;;;;;;;2073175;28;20014;-68
2024/04/05 00:58:18;;;;;;;2.70;1.70;;;;;;;;;;2072020;28;20018;-68
2024/04/05 00:59:20;;;;;;;5.90;2.10;;;;;;;;;;2071704;28;20454;-69
2024/04/05 01:00:24;;;;;;;4.95;2.35;;;;;;;;;;2072605;28;20025;-72
2024/04/05 01:01:25;;;;;;;4.15;1.95;;;;;;;;;;2071070;28;20062;-73
2024/04/05 01:02:26;;;;;;;3.35;2.30;;;;;;;;;;2073281;28;20026;-71
2024/04/05 01:03:29;;;;;;;4.15;2.10;;;;;;;;;;2073066;28;20041;-73
2024/04/05 01:04:30;;;;;;;4.05;2.42;;;;;;;;;;2072323;28;20021;-72
2024/04/05 01:05:32;;;;;;;4.63;2.30;;;;;;;;;;2070581;28;20030;-73
2024/04/05 01:06:34;;;;;;;4.88;2.28;;;;;;;;;;2073394;28;20145;-73
2024/04/05 01:07:35;;;;;;;4.18;2.35;;;;;;;;;;2073048;28;20398;-74
2024/04/05 01:08:38;;;;;;;3.58;2.35;;;;;;;;;;2073270;28;20022;-72
2024/04/05 01:09:39;;;;;;;7.00;2.13;;;;;;;;;;2073054;28;20052;-70
2024/04/05 01:10:41;;;;;;;3.78;2.10;;;;;;;;;;2073206;28;20391;-72
2024/04/05 01:11:42;;;;;;;4.07;2.25;;;;;;;;;;2073204;28;20034;-72
2024/04/05 01:12:44;;;;;;;3.42;2.10;;;;;;;;;;2072931;28;20486;-72
2024/04/05 01:13:48;;;;;;;5.32;2.50;;;;;;;;;;2073043;28;20548;-71
2024/04/05 01:14:50;;;;;;;4.53;2.17;;;;;;;;;;2073303;28;20029;-71
2024/04/05 01:15:52;;;;;;;6.00;2.67;;;;;;;;;;2073247;28;20025;-72
2024/04/05 01:16:53;;;;;;;4.63;2.13;;;;;;;;;;2071046;28;20410;-71
2024/04/05 01:17:54;;;;;;;3.92;2.33;;;;;;;;;;2073021;28;20022;-70
2024/04/05 01:18:57;;;;;;;5.82;2.35;;;;;;;;;;2073126;28;20029;-70
2024/04/05 01:20:00;;;;;;;5.28;2.53;;;;;;;;;;2073272;28;20025;-71
2024/04/05 01:21:02;;;;;;;4.93;2.50;;;;;;;;;;2073252;28;20034;-72
2024/04/05 01:22:05;;;;;;;3.28;1.98;;;;;;;;;;2072624;28;20100;-70
2024/04/05 01:23:07;;;;;;;6.43;2.75;;;;;;;;;;2073185;28;20026;-68
2024/04/05 01:24:09;;;;;;;3.72;2.25;;;;;;;;;;2073139;28;20026;-69
2024/04/05 01:25:11;;;;;;;3.80;2.38;;;;;;;;;;2073085;28;20018;-72
2024/04/05 01:26:12;;;;;;;4.97;2.42;;;;;;;;;;2073037;28;20429;-70
2024/04/05 01:27:13;;;;;;;6.03;2.22;;;;;;;;;;2073128;28;20022;-71
2024/04/05 01:28:16;;;;;;;5.05;2.20;;;;;;;;;;2073073;28;20049;-69
2024/04/05 01:29:17;;;;;;;3.72;1.98;;;;;;;;;;2073262;28;20041;-73
2024/04/05 01:30:18;;;;;;;4.70;2.22;;;;;;;;;;2073077;28;20032;-73
2024/04/05 01:31:20;;;;;;;4.63;2.05;;;;;;;;;;2072353;28;20014;-70
2024/04/05 01:32:21;;;;;;;4.45;2.20;;;;;;;;;;2069892;28;20034;-68
2024/04/05 01:33:23;;;;;;;2.58;1.77;;;;;;;;;;2073043;28;20533;-70
2024/04/05 01:34:24;;;;;;;2.72;1.65;;;;;;;;;;2072945;28;20026;-69
2024/04/05 01:35:28;;;;;;;3.80;1.77;;;;;;;;;;2072340;28;20437;-72
2024/04/05 01:36:30;;;;;;;3.50;2.20;;;;;;;;;;2072524;28;20123;-71
2024/04/05 01:37:32;;;;;;;3.95;2.08;;;;;;;;;;2070478;28;20036;-70
2024/04/05 01:38:34;;;;;;;4.53;1.88;;;;;;;;;;2073123;28;20487;-68
2024/04/05 01:39:35;;;;;;;2.90;2.13;;;;;;;;;;2072909;28;20546;-72
2024/04/05 01:40:37;;;;;;;3.78;2.10;;;;;;;;;;2073090;28;20033;-68
2024/04/05 01:41:39;;;;;;;2.85;1.90;;;;;;;;;;2073067;28;20018;-69
2024/04/05 01:42:40;;;;;;;3.60;1.63;;;;;;;;;;2072945;28;20479;-73
2024/04/05 01:43:42;;;;;;;2.78;2.15;;;;;;;;;;2070057;28;20021;-74
2024/04/05 01:44:44;;;;;;;5.97;1.75;;;;;;;;;;2072185;28;20542;-74
2024/04/05 01:45:45;;;;;;;3.70;1.83;;;;;;;;;;2073002;28;20024;-75
2024/04/05 01:46:48;;;;;;;4.03;1.88;;;;;;;;;;2072993;28;20522;-73
2024/04/05 01:47:49;;;;;;;3.78;1.80;;;;;;;;;;2072861;28;20044;-72
2024/04/05 01:48:50;;;;;;;3.00;1.90;;;;;;;;;;2070956;28;20106;-71
2024/04/05 01:49:53;;;;;;;2.35;1.58;;;;;;;;;;2064065;28;20030;-76
2024/04/05 01:50:54;;;;;;;2.53;1.70;;;;;;;;;;2072512;28;20064;-74
2024/04/05 01:51:56;;;;;;;3.13;2.20;;;;;;;;;;2073178;28;20041;-75
2024/04/05 01:52:58;;;;;;;3.85;1.60;;;;;;;;;;2073066;28;20026;-75
2024/04/05 01:53:59;;;;;;;2.97;1.50;;;;;;;;;;2073008;28;20117;-74
2024/04/05 01:55:01;;;;;;;3.28;1.80;;;;;;;;;;2073079;28;20065;-71
2024/04/05 01:56:05;;;;;;;3.63;1.73;;;;;;;;;;2072507;28;20022;-75
2024/04/05 01:57:07;;;;;;;3.42;1.85;;;;;;;;;;2073101;28;20490;-76
2024/04/05 01:58:10;;;;;;;3.05;1.65;;;;;;;;;;2073172;28;20049;-73
2024/04/05 01:59:12;;;;;;;2.88;2.00;;;;;;;;;;2070561;28;20405;-76
2024/04/05 02:00:13;;;;;;;4.63;2.08;;;;;;;;;;2073145;28;20014;-77
2024/04/05 02:01:14;;;;;;;4.55;1.88;;;;;;;;;;2073046;28;20033;-77
2024/04/05 02:02:16;;;;;;;4.32;2.15;;;;;;;;;;2073290;28;20069;-76
2024/04/05 02:03:18;;;;;;;2.58;1.75;;;;;;;;;;2072956;28;20104;-76
2024/04/05 02:04:19;;;;;;;2.75;1.73;;;;;;;;;;2072994;28;20022;-76
2024/04/05 02:05:20;;;;;;;5.20;2.10;;;;;;;;;;2071655;28;20030;-75
2024/04/05 02:06:22;;;;;;;3.28;1.75;;;;;;;;;;2073185;28;20290;-73
2024/04/05 02:07:24;;;;;;;1.95;1.50;;;;;;;;;;2072837;28;20399;-76
2024/04/05 02:08:25;;;;;;;2.75;1.67;;;;;;;;;;2072922;28;20113;-74
2024/04/05 02:09:26;;;;;;;6.00;1.67;;;;;;;;;;2072986;28;20494;-74
2024/04/05 02:10:29;;;;;;;3.05;1.60;;;;;;;;;;2072994;28;20022;-75
2024/04/05 02:11:30;;;;;;;3.30;2.15;;;;;;;;;;2072954;28;20025;-74
2024/04/05 02:12:31;;;;;;;3.30;1.73;;;;;;;;;;2074607;28;20116;-74
2024/04/05 02:13:34;;;;;;;3.15;1.75;;;;;;;;;;2072459;28;20037;-75
2024/04/05 02:14:35;;;;;;;3.90;1.90;;;;;;;;;;2074560;28;20026;-73
2024/04/05 02:15:37;;;;;;;4.45;2.22;;;;;;;;;;2074707;28;20018;-73
2024/04/05 02:16:38;;;;;;;3.05;2.10;;;;;;;;;;2074847;28;20474;-73
2024/04/05 02:17:39;;;;;;;3.45;1.88;;;;;;;;;;2074531;28;20029;-74
2024/04/05 02:18:41;;;;;;;4.80;2.00;;;;;;;;;;2074541;28;20018;-73
2024/04/05 02:19:42;;;;;;;2.60;1.90;;;;;;;;;;2074610;28;20037;-74
2024/04/05 02:20:51;;;;;;;8.00;2.38;;;;;;;;;;2074958;28;20080;-72
2024/04/05 02:21:53;;;;;;;3.78;2.17;;;;;;;;;;2073241;28;20022;-72
2024/04/05 02:22:55;;;;;;;3.60;1.88;;;;;;;;;;2075815;28;20084;-72
2024/04/05 02:23:56;;;;;;;2.67;1.88;;;;;;;;;;2076685;28;20030;-71
2024/04/05 02:24:58;;;;;;;3.03;2.20;;;;;;;;;;2083446;28;20062;-72
2024/04/05 02:25:59;;;;;;;3.88;1.98;;;;;;;;;;2083011;28;20034;-71
2024/04/05 02:27:01;;;;;;;4.18;2.22;;;;;;;;;;2081028;28;20034;-72
2024/04/05 02:28:02;;;;;;;3.33;2.30;;;;;;;;;;2081148;28;20041;-71
2024/04/05 02:29:04;;;;;;;3.45;2.25;;;;;;;;;;2080751;28;20040;-72
2024/04/05 02:30:06;;;;;;;3.20;1.98;;;;;;;;;;2080236;28;20030;-74
2024/04/05 02:31:10;;;;;;;3.42;1.92;;;;;;;;;;2080621;28;20026;-73
2024/04/05 02:32:12;;;;;;;3.88;1.98;;;;;;;;;;2081778;28;20093;-71
2024/04/05 02:33:13;;;;;;;2.22;1.77;;;;;;;;;;2082009;28;20084;-70
2024/04/05 02:34:15;;;;;;;3.03;2.05;;;;;;;;;;2081143;28;20029;-70
2024/04/05 02:35:16;;;;;;;3.80;2.15;;;;;;;;;;2076730;28;20053;-71
2024/04/05 02:36:18;;;;;;;3.38;1.92;;;;;;;;;;2075646;28;20021;-73
2024/04/05 02:37:19;;;;;;;3.20;1.88;;;;;;;;;;2076221;28;20077;-75
2024/04/05 02:38:20;;;;;;;4.22;2.25;;;;;;;;;;2075059;28;20115;-74
2024/04/05 02:39:22;;;;;;;3.40;1.70;;;;;;;;;;2074748;28;20037;-73
2024/04/05 02:40:23;;;;;;;3.85;2.10;;;;;;;;;;2074288;28;20045;-73
2024/04/05 02:41:24;;;;;;;4.30;1.92;;;;;;;;;;2074476;28;20109;-73
2024/04/05 02:42:26;;;;;;;6.90;2.17;;;;;;;;;;2074442;28;20018;-72
2024/04/05 02:43:27;;;;;;;4.00;1.90;;;;;;;;;;2074310;28;20014;-75
2024/04/05 02:44:28;;;;;;;5.15;2.53;;;;;;;;;;2073742;28;20038;-74
2024/04/05 02:45:30;;;;;;;3.20;2.28;;;;;;;;;;2073831;28;20423;-72
2024/04/05 02:46:32;;;;;;;3.35;2.03;;;;;;;;;;2071717;28;20037;-76
2024/04/05 02:47:34;;;;;;;5.53;2.58;;;;;;;;;;2074268;28;20444;-74
2024/04/05 02:48:35;;;;;;;4.18;2.15;;;;;;;;;;2074250;28;20029;-75
2024/04/05 02:49:37;;;;;;;5.20;2.40;;;;;;;;;;2074268;28;20573;-75
2024/04/05 02:50:38;;;;;;;4.47;2.10;;;;;;;;;;2074387;28;20034;-76
2024/04/05 02:51:40;;;;;;;5.90;2.45;;;;;;;;;;2074425;28;20026;-78
2024/04/05 02:52:41;;;;;;;3.85;2.08;;;;;;;;;;2074181;28;20383;-76
2024/04/05 02:53:42;;;;;;;3.70;2.03;;;;;;;;;;2074360;28;20018;-75
2024/04/05 02:54:44;;;;;;;4.97;2.20;;;;;;;;;;2074271;28;20494;-76
2024/04/05 02:55:45;;;;;;;3.03;1.70;;;;;;;;;;2073653;28;20046;-76
2024/04/05 02:56:48;;;;;;;4.97;2.22;;;;;;;;;;2074456;28;20026;-76
2024/04/05 02:57:49;;;;;;;4.75;2.15;;;;;;;;;;2074293;28;20455;-75
2024/04/05 02:58:50;;;;;;;3.28;1.88;;;;;;;;;;2074328;28;20487;-74
2024/04/05 02:59:52;;;;;;;3.42;2.03;;;;;;;;;;2071665;28;20029;-76
2024/04/05 03:00:56;;;;;;;4.43;2.10;;;;;;;;;;2074376;28;20068;-75
2024/04/05 03:01:57;;;;;;;4.97;2.33;;;;;;;;;;2074193;28;20022;-77
2024/04/05 03:03:00;;;;;;;2.70;1.70;;;;;;;;;;2074152;28;20018;-75
2024/04/05 03:04:02;;;;;;;4.20;2.47;;;;;;;;;;2073987;28;21075;-71
2024/04/05 03:05:04;;;;;;;3.80;2.10;;;;;;;;;;2074143;28;20018;-74
2024/04/05 03:06:05;;;;;;;5.47;1.95;;;;;;;;;;2074210;28;20076;-71
2024/04/05 03:07:06;;;;;;;3.22;2.35;;;;;;;;;;2074046;28;20064;-70
2024/04/05 03:08:08;;;;;;;2.85;1.83;;;;;;;;;;2074207;28;20022;-70
2024/04/05 03:09:09;;;;;;;4.30;2.40;;;;;;;;;;2074272;28;20025;-71
2024/04/05 03:10:11;;;;;;;4.88;2.38;;;;;;;;;;2073996;28;20026;-70
2024/04/05 03:11:12;;;;;;;5.20;2.30;;;;;;;;;;2074209;28;20461;-71
2024/04/05 03:12:13;;;;;;;4.00;1.98;;;;;;;;;;2074070;28;20025;-71
2024/04/05 03:13:15;;;;;;;3.88;2.13;;;;;;;;;;2072546;28;20022;-71
2024/04/05 03:14:17;;;;;;;5.55;2.50;;;;;;;;;;2074171;28;20032;-75
2024/04/05 03:15:19;;;;;;;8.05;3.15;;;;;;;;;;2074093;28;20018;-72
2024/04/05 03:16:20;;;;;;;6.28;2.95;;;;;;;;;;2074143;28;20040;-72
2024/04/05 03:17:22;;;;;;;8.68;3.30;;;;;;;;;;2081765;28;20037;-72
2024/04/05 03:18:25;;;;;;;9.52;3.50;;;;;;;;;;2081430;28;20022;-72
2024/04/05 03:19:26;;;;;;;4.25;2.30;;;;;;;;;;2073975;28;20483;-74
2024/04/05 03:20:27;;;;;;;6.95;2.33;;;;;;;;;;2074117;28;20014;-72
2024/04/05 03:21:30;;;;;;;3.00;1.92;;;;;;;;;;2074190;28;20041;-74
2024/04/05 03:22:31;;;;;;;3.53;2.22;;;;;;;;;;2074157;28;20109;-73
2024/04/05 03:23:33;;;;;;;6.65;2.35;;;;;;;;;;2072926;28;20402;-72
2024/04/05 03:24:34;;;;;;;3.08;2.20;;;;;;;;;;2074102;28;20026;-73
2024/04/05 03:25:37;;;;;;;4.40;2.20;;;;;;;;;;2074118;28;20022;-73
2024/04/05 03:26:39;;;;;;;3.30;2.17;;;;;;;;;;2073931;28;20474;-73
2024/04/05 03:27:40;;;;;;;2.83;2.20;;;;;;;;;;2081482;28;20036;-72
2024/04/05 03:28:42;;;;;;;4.13;2.35;;;;;;;;;;2072177;28;20049;-73
2024/04/05 03:29:43;;;;;;;4.05;2.22;;;;;;;;;;2073426;28;20123;-73
2024/04/05 03:30:44;;;;;;;3.42;2.10;;;;;;;;;;2073874;28;20029;-74
2024/04/05 03:31:46;;;;;;;5.50;2.50;;;;;;;;;;2074047;28;20589;-74
2024/04/05 03:32:47;;;;;;;2.97;2.00;;;;;;;;;;2074164;28;20029;-73
2024/04/05 03:33:49;;;;;;;3.60;2.17;;;;;;;;;;2073840;28;20022;-75
2024/04/05 03:34:50;;;;;;;5.45;2.20;;;;;;;;;;2073272;28;20396;-73
2024/04/05 03:35:52;;;;;;;5.00;2.47;;;;;;;;;;2070674;28;20462;-74
2024/04/05 03:36:53;;;;;;;4.43;1.98;;;;;;;;;;2073979;28;20066;-72
2024/04/05 03:37:54;;;;;;;4.65;2.10;;;;;;;;;;2073857;28;20029;-72
2024/04/05 03:39:01;;;;;;;3.97;2.17;;;;;;;;;;2073872;28;20076;-74
2024/04/05 03:40:02;;;;;;;3.70;2.20;;;;;;;;;;2071446;28;20026;-73
2024/04/05 03:41:04;;;;;;;4.25;2.00;;;;;;;;;;2073957;28;20024;-72
2024/04/05 03:42:05;;;;;;;4.03;2.00;;;;;;;;;;2073728;28;20029;-70
2024/04/05 03:43:07;;;;;;;4.40;2.38;;;;;;;;;;2073914;28;20026;-73
2024/04/05 03:44:08;;;;;;;3.40;2.25;;;;;;;;;;2073750;28;20046;-72
2024/04/05 03:45:10;;;;;;;4.75;2.15;;;;;;;;;;2073890;28;20034;-75
2024/04/05 03:46:12;;;;;;;4.07;2.22;;;;;;;;;;2071249;28;20051;-73
2024/04/05 03:47:13;;;;;;;6.05;2.15;;;;;;;;;;2073716;28;20022;-74
2024/04/05 03:48:15;;;;;;;4.40;2.20;;;;;;;;;;2073733;28;20030;-74
2024/04/05 03:49:16;;;;;;;4.55;2.20;;;;;;;;;;2073718;28;20014;-70
2024/04/05 03:50:18;;;;;;;8.13;2.25;;;;;;;;;;2073790;28;20021;-71
2024/04/05 03:51:19;;;;;;;4.13;2.30;;;;;;;;;;2073327;28;20049;-73
2024/04/05 03:52:21;;;;;;;4.35;2.22;;;;;;;;;;2073051;28;20034;-77
2024/04/05 03:53:22;;;;;;;4.78;2.85;;;;;;;;;;2073837;28;20034;-71
2024/04/05 03:54:23;;;;;;;4.40;2.08;;;;;;;;;;2073825;28;20022;-76
2024/04/05 03:55:25;;;;;;;5.70;2.58;;;;;;;;;;2073776;28;20025;-76
2024/04/05 03:56:26;;;;;;;4.13;2.00;;;;;;;;;;2072991;28;20034;-74
2024/04/05 03:57:27;;;;;;;4.05;2.20;;;;;;;;;;2073210;28;20045;-73
2024/04/05 03:58:30;;;;;;;4.90;2.25;;;;;;;;;;2068823;28;20034;-71
2024/04/05 03:59:31;;;;;;;3.85;2.22;;;;;;;;;;2071570;28;20033;-76
2024/04/05 04:00:32;;;;;;;3.53;2.17;;;;;;;;;;2071167;28;20026;-74
2024/04/05 04:01:34;;;;;;;4.85;2.38;;;;;;;;;;2072345;28;20021;-71
2024/04/05 04:02:35;;;;;;;4.00;2.13;;;;;;;;;;2073534;28;20029;-72
2024/04/05 04:03:36;;;;;;;3.90;2.50;;;;;;;;;;2073630;28;20018;-72
2024/04/05 04:04:38;;;;;;;3.53;2.30;;;;;;;;;;2073556;28;20152;-75
2024/04/05 04:05:39;;;;;;;3.85;2.22;;;;;;;;;;2073630;28;20025;-75
2024/04/05 04:06:40;;;;;;;4.22;2.40;;;;;;;;;;2073550;28;20482;-73
2024/04/05 04:07:42;;;;;;;4.88;2.35;;;;;;;;;;2073450;28;20132;-74
2024/04/05 04:08:43;;;;;;;4.38;2.28;;;;;;;;;;2073664;28;20037;-73
2024/04/05 04:09:46;;;;;;;4.65;2.35;;;;;;;;;;2073540;28;20033;-72
2024/04/05 04:10:47;;;;;;;3.42;2.15;;;;;;;;;;2073055;28;20034;-72
2024/04/05 04:11:49;;;;;;;5.55;2.58;;;;;;;;;;2072874;28;20036;-73
2024/04/05 04:12:50;;;;;;;4.20;2.30;;;;;;;;;;2071307;28;20419;-74
2024/04/05 04:13:52;;;;;;;2.83;2.17;;;;;;;;;;2071011;28;20041;-72
2024/04/05 04:14:53;;;;;;;3.88;2.35;;;;;;;;;;2073468;28;20026;-71
2024/04/05 04:15:55;;;;;;;7.03;2.75;;;;;;;;;;2073535;28;20034;-72
2024/04/05 04:16:57;;;;;;;4.15;2.80;;;;;;;;;;2073698;28;20183;-73
2024/04/05 04:17:58;;;;;;;5.07;3.17;;;;;;;;;;2073657;28;20105;-71
2024/04/05 04:18:59;;;;;;;5.78;3.58;;;;;;;;;;2073393;28;20029;-74
2024/04/05 04:20:04;;;;;;;3.72;2.22;;;;;;;;;;2073566;28;20103;-75
2024/04/05 04:21:05;;;;;;;4.32;2.40;;;;;;;;;;2073393;28;20567;-71
2024/04/05 04:22:07;;;;;;;5.40;2.63;;;;;;;;;;2073539;28;20037;-73
2024/04/05 04:23:08;;;;;;;4.50;3.10;;;;;;;;;;2073430;28;20498;-71
2024/04/05 04:24:10;;;;;;;5.68;3.17;;;;;;;;;;2073431;28;20050;-72
2024/04/05 04:25:11;;;;;;;6.20;2.97;;;;;;;;;;2073658;28;20454;-72
2024/04/05 04:26:13;;;;;;;4.75;2.60;;;;;;;;;;2071103;28;20054;-74
2024/04/05 04:27:14;;;;;;;4.85;3.08;;;;;;;;;;2073310;28;20045;-71
2024/04/05 04:28:16;;;;;;;5.07;2.90;;;;;;;;;;2073508;28;20402;-71
2024/04/05 04:29:18;;;;;;;6.32;2.45;;;;;;;;;;2073468;28;20029;-72
2024/04/05 04:30:19;;;;;;;5.80;2.75;;;;;;;;;;2073494;28;20024;-74
2024/04/05 04:31:21;;;;;;;5.13;2.42;;;;;;;;;;2073528;28;20156;-74
2024/04/05 04:32:23;;;;;;;7.15;2.78;;;;;;;;;;2073334;28;20061;-68
2024/04/05 04:33:24;;;;;;;4.93;2.80;;;;;;;;;;2073427;28;20017;-72
2024/04/05 04:34:26;;;;;;;5.43;2.63;;;;;;;;;;2073325;28;20025;-73
2024/04/05 04:35:27;;;;;;;4.22;2.63;;;;;;;;;;2073269;28;20097;-72
2024/04/05 04:36:28;;;;;;;8.55;3.30;;;;;;;;;;2073435;28;20030;-76
2024/04/05 04:37:30;;;;;;;5.97;2.88;;;;;;;;;;2073389;28;20028;-72
2024/04/05 04:38:32;;;;;;;7.53;3.50;;;;;;;;;;2071024;28;20270;-71
2024/04/05 04:39:33;;;;;;;6.63;2.60;;;;;;;;;;2073436;28;20018;-70
2024/04/05 04:40:34;;;;;;;5.90;2.78;;;;;;;;;;2073366;28;20372;-71
2024/04/05 04:41:36;;;;;;;5.75;3.05;;;;;;;;;;2073375;28;20355;-74
2024/04/05 04:42:38;;;;;;;7.00;3.40;;;;;;;;;;2073383;28;20036;-78
2024/04/05 04:43:40;;;;;;;5.40;2.85;;;;;;;;;;2073373;28;20014;-74
2024/04/05 04:44:42;;;;;;;6.32;2.67;;;;;;;;;;2069185;28;20041;-72
2024/04/05 04:45:43;;;;;;;4.55;3.00;;;;;;;;;;2071947;28;20475;-70
2024/04/05 04:46:44;;;;;;;6.72;2.88;;;;;;;;;;2072287;28;20029;-72
2024/04/05 04:47:46;;;;;;;5.35;3.20;;;;;;;;;;2073121;28;20038;-74
2024/04/05 04:48:47;;;;;;;9.13;3.55;;;;;;;;;;2071311;28;20491;-73
2024/04/05 04:49:48;;;;;;;5.47;3.33;;;;;;;;;;2072563;28;20046;-74
2024/04/05 04:50:51;;;;;;;6.47;3.22;;;;;;;;;;2073442;28;20014;-72
2024/04/05 04:51:52;;;;;;;5.13;3.03;;;;;;;;;;2073298;28;20053;-73
2024/04/05 04:52:54;;;;;;;10.38;3.80;;;;;;;;;;2073398;28;20124;-74
2024/04/05 04:53:56;;;;;;;4.45;3.13;;;;;;;;;;2073975;28;20030;-73
2024/04/05 04:54:57;;;;;;;6.13;3.63;;;;;;;;;;2073453;28;20030;-75
2024/04/05 04:56:01;;;;;;;5.22;3.22;;;;;;;;;;2068562;28;20022;-73
2024/04/05 04:57:02;;;;;;;5.63;3.03;;;;;;;;;;2070194;28;20036;-78
2024/04/05 04:58:04;;;;;;;4.60;2.55;;;;;;;;;;2073408;28;20072;-75
2024/04/05 04:59:07;;;;;;;7.53;2.90;;;;;;;;;;2069670;28;20076;-76
2024/04/05 05:00:09;;;;;;;7.68;2.72;;;;;;;;;;2072537;28;20094;-73
2024/04/05 05:01:11;;;;;;;6.65;3.25;;;;;;;;;;2071494;28;20025;-74
2024/04/05 05:02:12;;;;;;;7.00;2.72;;;;;;;;;;2073357;28;20565;-76
2024/04/05 05:03:14;;;;;;;6.65;2.67;;;;;;;;;;2072076;28;20045;-73
2024/04/05 05:04:16;;;;;;;5.47;2.58;;;;;;;;;;2069433;28;20522;-72
2024/04/05 05:05:18;;;;;;;5.65;2.70;;;;;;;;;;2071562;28;20026;-72
2024/04/05 05:06:19;;;;;;;7.68;3.10;;;;;;;;;;2069198;28;20084;-74
2024/04/05 05:07:20;;;;;;;4.50;2.65;;;;;;;;;;2065367;28;20030;-73
2024/04/05 05:08:23;;;;;;;6.40;2.78;;;;;;;;;;2071508;28;20041;-67
2024/04/05 05:09:24;;;;;;;5.00;2.50;;;;;;;;;;2072056;28;20018;-73
2024/04/05 05:10:26;;;;;;;5.07;2.85;;;;;;;;;;2069174;28;20022;-71
2024/04/05 05:11:27;;;;;;;6.95;2.88;;;;;;;;;;2070284;28;20145;-73
2024/04/05 05:12:29;;;;;;;4.32;2.75;;;;;;;;;;2068890;28;20580;-69
2024/04/05 05:13:30;;;;;;;6.53;3.08;;;;;;;;;;2071221;28;20026;-71
2024/04/05 05:14:31;;;;;;;4.05;2.50;;;;;;;;;;2065981;28;20546;-72
2024/04/05 05:15:34;;;;;;;6.35;3.00;;;;;;;;;;2069980;28;20030;-72
2024/04/05 05:16:39;;;;;;;5.80;2.80;;;;;;;;;;2070990;28;20040;-70
2024/04/05 05:17:40;;;;;;;7.57;3.08;;;;;;;;;;2069291;28;20109;-73
2024/04/05 05:18:41;;;;;;;5.55;3.00;;;;;;;;;;2069692;28;20063;-72
2024/04/05 05:19:43;;;;;;;4.85;2.80;;;;;;;;;;2070364;28;20124;-73
2024/04/05 05:20:46;;;;;;;6.68;2.90;;;;;;;;;;2069913;28;20104;-73
2024/04/05 05:21:47;;;;;;;4.32;2.28;;;;;;;;;;2071136;28;20014;-72
2024/04/05 05:22:49;;;;;;;5.57;3.00;;;;;;;;;;2071302;28;20076;-70
2024/04/05 05:23:50;;;;;;;6.45;2.88;;;;;;;;;;2070696;28;20126;-70
2024/04/05 05:24:52;;;;;;;6.70;3.17;;;;;;;;;;2068379;28;20030;-71
2024/04/05 05:25:53;;;;;;;7.38;2.97;;;;;;;;;;2069954;28;20014;-70
2024/04/05 05:26:54;;;;;;;6.22;4.10;;;;;;;;;;2068035;28;20032;-69
2024/04/05 05:27:56;;;;;;;5.22;2.80;;;;;;;;;;2071694;28;20085;-70
2024/04/05 05:28:57;;;;;;;4.82;2.75;;;;;;;;;;2070697;28;20049;-72
2024/04/05 05:29:59;;;;;;;4.18;2.50;;;;;;;;;;2072014;28;20080;-72
2024/04/05 05:31:01;;;;;;;4.45;2.95;;;;;;;;;;2071976;28;20394;-71
2024/04/05 05:32:03;;;;;;;6.13;2.55;;;;;;;;;;2072211;28;20026;-72
2024/04/05 05:33:05;;;;;;;4.88;2.55;;;;;;;;;;2072279;28;20018;-71
2024/04/05 05:34:07;;;;;;;4.55;3.08;;;;;;;;;;2072482;28;20022;-72
2024/04/05 05:35:09;;;;;;;8.93;3.25;;;;;;;;;;2071067;28;20034;-73
2024/04/05 05:36:11;;;;;;;4.50;2.83;;;;;;;;;;2069828;28;20157;-71
2024/04/05 05:37:12;;;;;;;5.00;2.83;;;;;;;;;;2070712;28;20026;-73
2024/04/05 05:38:13;;;;;;;5.43;2.92;;;;;;;;;;2071509;28;20036;-71
2024/04/05 05:39:15;;;;;;;5.57;2.90;;;;;;;;;;2071214;28;20071;-69
2024/04/05 05:40:16;;;;;;;6.18;2.65;;;;;;;;;;2071485;28;20515;-70
2024/04/05 05:41:18;;;;;;;4.97;3.00;;;;;;;;;;2072168;28;20025;-71
2024/04/05 05:42:19;;;;;;;6.65;2.80;;;;;;;;;;2072360;28;20128;-70
2024/04/05 05:43:22;;;;;;;5.32;2.83;;;;;;;;;;2070209;28;20029;-72
2024/04/05 05:44:23;;;;;;;6.55;3.47;;;;;;;;;;2072149;28;20117;-69
2024/04/05 05:45:24;;;;;;;7.07;3.47;;;;;;;;;;2071372;28;20041;-69
2024/04/05 05:46:27;;;;;;;6.75;3.80;;;;;;;;;;2071155;28;20034;-71
2024/04/05 05:47:28;;;;;;;7.07;3.58;;;;;;;;;;2073919;28;20133;-69
2024/04/05 05:48:29;;;;;;;6.75;3.92;;;;;;;;;;2073787;28;20077;-71
2024/04/05 05:49:31;;;;;;;9.40;3.95;;;;;;;;;;2073523;28;20026;-68
2024/04/05 05:50:32;;;;;;;6.18;3.58;;;;;;;;;;2073909;28;20022;-65
2024/04/05 05:51:34;;;;;;;7.22;3.65;;;;;;;;;;2073542;28;20026;-65
2024/04/05 05:52:36;;;;;;;7.95;4.03;;;;;;;;;;2072789;28;20024;-63
2024/04/05 05:53:37;;;;;;;5.75;3.72;;;;;;;;;;2073080;28;20403;-65
2024/04/05 05:54:38;;;;;;;7.97;4.07;;;;;;;;;;2073403;28;20030;-66
2024/04/05 05:55:42;;;;;;;6.82;4.03;;;;;;;;;;2070388;28;20034;-65
2024/04/05 05:56:43;;;;;;;6.35;4.10;;;;;;;;;;2072966;28;20094;-64
2024/04/05 05:57:44;;;;;;;5.88;3.92;;;;;;;;;;2073920;28;20509;-65
2024/04/05 05:58:47;;;;;;;6.00;3.60;;;;;;;;;;2072415;28;20057;-65
2024/04/05 05:59:48;;;;;;;8.82;4.40;;;;;;;;;;2073511;28;20021;-64
2024/04/05 06:00:50;;;;;;;9.07;3.97;;;;;;;;;;2073406;28;20033;-65
2024/04/05 06:01:51;;;;;;;6.93;4.22;;;;;;;;;;2072256;28;20088;-65
2024/04/05 06:02:53;;;;;;;7.40;4.05;;;;;;;;;;2073665;28;20030;-63
2024/04/05 06:03:54;;;;;;;5.75;3.63;;;;;;;;;;2073490;28;20069;-64
2024/04/05 06:04:55;;;;;;;10.50;5.40;;;;;;;;;;2072413;28;20099;-64
2024/04/05 06:05:57;;;;;;;8.23;4.78;;;;;;;;;;2073894;28;20029;-65
2024/04/05 06:06:58;;;;;;;10.48;5.00;;;;;;;;;;2072722;28;20405;-65
2024/04/05 06:08:00;;;;;;;15.43;5.70;;;;;;;;;;2072192;28;20049;-66
2024/04/05 06:09:02;;;;;;;10.93;5.25;;;;;;;;;;2072458;28;20458;-63
2024/04/05 06:10:04;;;;;;;12.15;5.10;;;;;;;;;;2069892;28;20038;-66